Time;durP1;ratioP1;P1;durP2;ratioP2;P2;SDS_P1;SDS_P2;PMS_P1;PMS_P2;Temp;Humidity;BMP_temperature;BMP_pressure;BME280_temperature;BME280_humidity;BME280_pressure;Samples;Min_cycle;Max_cycle;Signal;HPM_P1;HPM_P2
2023/07/01 00:01:46;;;;;;;4.47;4.17;;;;;;;;;;5016724;28;20693;-86
2023/07/01 00:04:13;;;;;;;4.00;3.70;;;;;;;;;;5011623;28;20218;-86
2023/07/01 00:06:42;;;;;;;4.03;3.63;;;;;;;;;;5012368;28;20215;-87
2023/07/01 00:09:09;;;;;;;4.00;3.70;;;;;;;;;;5031147;28;20667;-85
2023/07/01 00:11:36;;;;;;;5.07;4.20;;;;;;;;;;5018074;28;20246;-86
2023/07/01 00:14:03;;;;;;;4.33;4.03;;;;;;;;;;5022345;28;20242;-85
2023/07/01 00:16:30;;;;;;;4.13;3.83;;;;;;;;;;5012961;28;20246;-86
2023/07/01 00:18:57;;;;;;;5.60;3.63;;;;;;;;;;5025646;28;20211;-85
2023/07/01 00:21:24;;;;;;;7.20;4.17;;;;;;;;;;5031654;28;20205;-86
2023/07/01 00:23:52;;;;;;;4.03;3.73;;;;;;;;;;5024858;28;20215;-86
2023/07/01 00:26:18;;;;;;;4.40;4.00;;;;;;;;;;5026052;28;20206;-86
2023/07/01 00:28:45;;;;;;;11.33;5.10;;;;;;;;;;5016481;28;20231;-86
2023/07/01 00:31:12;;;;;;;4.30;4.00;;;;;;;;;;5014887;28;20218;-86
2023/07/01 00:33:39;;;;;;;4.00;3.70;;;;;;;;;;5032971;28;20206;-86
2023/07/01 00:36:06;;;;;;;4.67;4.37;;;;;;;;;;5022144;28;20673;-85
2023/07/01 00:38:32;;;;;;;4.63;4.17;;;;;;;;;;5034371;28;20605;-86
2023/07/01 00:41:01;;;;;;;5.17;4.43;;;;;;;;;;5034363;28;20570;-86
2023/07/01 00:43:27;;;;;;;5.00;4.60;;;;;;;;;;5021885;28;20211;-85
2023/07/01 00:45:54;;;;;;;5.67;4.20;;;;;;;;;;5032920;28;20715;-86
2023/07/01 00:48:25;;;;;;;4.97;4.57;;;;;;;;;;5022509;28;20231;-86
2023/07/01 00:50:52;;;;;;;4.40;4.10;;;;;;;;;;5021197;28;20242;-86
2023/07/01 00:53:19;;;;;;;4.47;4.07;;;;;;;;;;5024895;28;20593;-86
2023/07/01 00:55:46;;;;;;;4.27;3.87;;;;;;;;;;5030760;28;20202;-86
2023/07/01 00:58:14;;;;;;;6.97;4.63;;;;;;;;;;5034560;28;20612;-86
2023/07/01 01:00:43;;;;;;;4.73;4.43;;;;;;;;;;5029865;28;20211;-86
2023/07/01 01:03:21;;;;;;;4.13;3.83;;;;;;;;;;5025574;28;20779;-85
2023/07/01 01:05:51;;;;;;;4.57;4.20;;;;;;;;;;5021463;28;20286;-85
2023/07/01 01:08:22;;;;;;;5.40;4.90;;;;;;;;;;5020076;28;20234;-85
2023/07/01 01:10:49;;;;;;;4.47;4.17;;;;;;;;;;5022511;28;20206;-85
2023/07/01 01:13:17;;;;;;;5.17;4.77;;;;;;;;;;5031694;28;20631;-85
2023/07/01 01:15:45;;;;;;;4.93;4.60;;;;;;;;;;5023683;28;20231;-85
2023/07/01 01:18:16;;;;;;;4.37;4.03;;;;;;;;;;5020740;28;20591;-86
2023/07/01 01:20:44;;;;;;;5.03;4.40;;;;;;;;;;5033851;28;20206;-86
2023/07/01 01:23:15;;;;;;;6.20;4.93;;;;;;;;;;5020567;28;20290;-86
2023/07/01 01:25:45;;;;;;;4.90;4.50;;;;;;;;;;5020616;28;20288;-86
2023/07/01 01:28:13;;;;;;;4.80;4.40;;;;;;;;;;5020060;28;20242;-86
2023/07/01 01:30:40;;;;;;;7.50;4.40;;;;;;;;;;5021120;28;20207;-90
2023/07/01 01:33:07;;;;;;;5.07;4.67;;;;;;;;;;5020639;28;20231;-85
2023/07/01 01:35:33;;;;;;;6.47;4.13;;;;;;;;;;5033221;28;20297;-84
2023/07/01 01:38:05;;;;;;;8.23;4.93;;;;;;;;;;5020554;28;20220;-85
2023/07/01 01:40:36;;;;;;;4.57;4.27;;;;;;;;;;5033708;28;20199;-84
2023/07/01 01:43:09;;;;;;;5.50;4.97;;;;;;;;;;5020176;28;20211;-85
2023/07/01 01:45:40;;;;;;;5.33;4.83;;;;;;;;;;5029925;28;20233;-84
2023/07/01 01:48:07;;;;;;;5.00;4.30;;;;;;;;;;5024461;28;20206;-85
2023/07/01 01:50:36;;;;;;;4.63;4.23;;;;;;;;;;5033185;28;20206;-85
2023/07/01 01:53:04;;;;;;;4.80;4.40;;;;;;;;;;5019839;28;20210;-86
2023/07/01 01:55:31;;;;;;;4.63;4.30;;;;;;;;;;5033565;28;20217;-86
2023/07/01 01:57:59;;;;;;;5.10;4.40;;;;;;;;;;5032901;28;20207;-86
2023/07/01 02:00:26;;;;;;;4.37;3.97;;;;;;;;;;5033023;28;20634;-86
2023/07/01 02:02:54;;;;;;;3.90;3.60;;;;;;;;;;5032897;28;20727;-86
2023/07/01 02:05:21;;;;;;;5.27;4.87;;;;;;;;;;5033078;28;20218;-86
2023/07/01 02:07:48;;;;;;;4.70;4.30;;;;;;;;;;5018736;28;20214;-86
2023/07/01 02:10:15;;;;;;;4.77;4.20;;;;;;;;;;5032779;28;20237;-86
2023/07/01 02:12:42;;;;;;;4.73;4.43;;;;;;;;;;5032960;28;20210;-87
2023/07/01 02:15:09;;;;;;;5.80;4.37;;;;;;;;;;5032994;28;20237;-85
2023/07/01 02:17:36;;;;;;;5.03;4.20;;;;;;;;;;5019426;28;20271;-86
2023/07/01 02:20:06;;;;;;;4.57;4.17;;;;;;;;;;5031931;28;20207;-86
2023/07/01 02:22:33;;;;;;;4.73;4.17;;;;;;;;;;5013050;28;20735;-86
2023/07/01 02:25:00;;;;;;;3.90;3.60;;;;;;;;;;5013339;28;20211;-86
2023/07/01 02:27:30;;;;;;;6.10;4.67;;;;;;;;;;5032306;28;20202;-85
2023/07/01 02:29:57;;;;;;;4.53;4.23;;;;;;;;;;5019099;28;20239;-85
2023/07/01 02:32:24;;;;;;;5.03;4.67;;;;;;;;;;5032136;28;20215;-85
2023/07/01 02:34:51;;;;;;;5.37;4.67;;;;;;;;;;5032752;28;20207;-85
2023/07/01 02:37:19;;;;;;;4.83;4.43;;;;;;;;;;5032150;28;20218;-85
2023/07/01 02:39:46;;;;;;;5.27;4.87;;;;;;;;;;5031984;28;20224;-85
2023/07/01 02:42:15;;;;;;;5.17;4.60;;;;;;;;;;5032022;28;20224;-86
2023/07/01 02:44:42;;;;;;;4.93;4.53;;;;;;;;;;5032080;28;20716;-88
2023/07/01 02:47:09;;;;;;;4.53;4.23;;;;;;;;;;5032168;28;20202;-85
2023/07/01 02:49:40;;;;;;;4.33;4.03;;;;;;;;;;5017953;28;20247;-85
2023/07/01 02:52:08;;;;;;;4.87;4.50;;;;;;;;;;5032095;28;20199;-84
2023/07/01 02:54:38;;;;;;;5.10;4.70;;;;;;;;;;5031990;28;20271;-85
2023/07/01 02:57:06;;;;;;;5.03;4.63;;;;;;;;;;5020920;28;20209;-86
2023/07/01 02:59:34;;;;;;;7.07;4.87;;;;;;;;;;5029942;28;20214;-85
2023/07/01 03:02:00;;;;;;;4.60;4.30;;;;;;;;;;5020566;28;20218;-85
2023/07/01 03:04:27;;;;;;;4.93;4.53;;;;;;;;;;5025373;28;20203;-86
2023/07/01 03:06:54;;;;;;;4.77;4.37;;;;;;;;;;5024313;28;20213;-87
2023/07/01 03:09:21;;;;;;;5.00;4.50;;;;;;;;;;5031586;28;20229;-86
2023/07/01 03:11:49;;;;;;;4.57;4.27;;;;;;;;;;5031618;28;20203;-86
2023/07/01 03:14:16;;;;;;;6.60;4.73;;;;;;;;;;5018561;28;20202;-87
2023/07/01 03:16:44;;;;;;;4.70;4.33;;;;;;;;;;5032057;28;20696;-87
2023/07/01 03:19:11;;;;;;;5.40;4.90;;;;;;;;;;5019406;28;20210;-86
2023/07/01 03:21:38;;;;;;;6.60;5.00;;;;;;;;;;5031574;28;20690;-87
2023/07/01 03:24:05;;;;;;;5.40;5.00;;;;;;;;;;5025323;28;20215;-87
2023/07/01 03:26:32;;;;;;;4.70;4.30;;;;;;;;;;5024739;28;20231;-86
2023/07/01 03:29:00;;;;;;;5.13;4.73;;;;;;;;;;5018595;28;20226;-86
2023/07/01 03:31:28;;;;;;;4.87;4.47;;;;;;;;;;5031723;28;20209;-87
2023/07/01 03:33:55;;;;;;;5.00;4.60;;;;;;;;;;5030597;28;20218;-86
2023/07/01 03:36:21;;;;;;;6.37;4.50;;;;;;;;;;5029870;28;20700;-87
2023/07/01 03:38:49;;;;;;;4.77;4.47;;;;;;;;;;5032125;28;20583;-87
2023/07/01 03:41:16;;;;;;;5.00;4.63;;;;;;;;;;5031661;28;20250;-88
2023/07/01 03:43:43;;;;;;;4.97;4.57;;;;;;;;;;5024012;28;20214;-86
2023/07/01 03:46:11;;;;;;;5.23;4.33;;;;;;;;;;5024867;28;20218;-86
2023/07/01 03:48:38;;;;;;;5.27;4.73;;;;;;;;;;5039651;28;20206;-86
2023/07/01 03:51:05;;;;;;;5.23;4.83;;;;;;;;;;5036552;28;20211;-87
2023/07/01 03:53:31;;;;;;;4.77;4.43;;;;;;;;;;5021827;28;20207;-87
2023/07/01 03:55:58;;;;;;;4.47;4.17;;;;;;;;;;5009332;28;20229;-86
2023/07/01 03:58:25;;;;;;;5.20;4.73;;;;;;;;;;5022003;28;20207;-87
2023/07/01 04:00:53;;;;;;;4.87;4.47;;;;;;;;;;5028902;28;20214;-87
2023/07/01 04:03:23;;;;;;;4.90;4.40;;;;;;;;;;5042279;28;20220;-87
2023/07/01 04:05:51;;;;;;;5.20;4.43;;;;;;;;;;5030253;28;20650;-87
2023/07/01 04:08:18;;;;;;;6.27;4.67;;;;;;;;;;5030196;28;20202;-87
2023/07/01 04:10:45;;;;;;;5.57;5.07;;;;;;;;;;5029632;28;20319;-91
2023/07/01 04:13:12;;;;;;;5.40;4.83;;;;;;;;;;5031529;28;20643;-86
2023/07/01 04:15:38;;;;;;;5.07;4.67;;;;;;;;;;5027579;28;20313;-86
2023/07/01 04:18:05;;;;;;;5.47;4.97;;;;;;;;;;5021887;28;20206;-87
2023/07/01 04:20:33;;;;;;;5.73;5.23;;;;;;;;;;5016808;28;20211;-87
2023/07/01 04:23:00;;;;;;;5.40;4.90;;;;;;;;;;5026652;28;20717;-87
2023/07/01 04:25:27;;;;;;;4.93;4.53;;;;;;;;;;5028728;28;20206;-86
2023/07/01 04:27:54;;;;;;;5.10;4.70;;;;;;;;;;5030104;28;20405;-88
2023/07/01 04:30:21;;;;;;;5.20;4.80;;;;;;;;;;5030666;28;20803;-87
2023/07/01 04:32:48;;;;;;;4.67;4.37;;;;;;;;;;5031107;28;20211;-87
2023/07/01 04:35:15;;;;;;;4.60;4.30;;;;;;;;;;5031313;28;20210;-87
2023/07/01 04:37:43;;;;;;;5.13;4.73;;;;;;;;;;5031576;28;20298;-87
2023/07/01 04:40:11;;;;;;;5.33;4.93;;;;;;;;;;5024597;28;20254;-86
2023/07/01 04:42:46;;;;;;;4.73;4.33;;;;;;;;;;5023800;28;20337;-86
2023/07/01 04:45:13;;;;;;;5.57;5.07;;;;;;;;;;5011534;28;20198;-86
2023/07/01 04:47:39;;;;;;;5.57;5.17;;;;;;;;;;5024732;28;20611;-87
2023/07/01 04:50:08;;;;;;;5.83;5.43;;;;;;;;;;5018517;28;20253;-87
2023/07/01 04:52:35;;;;;;;4.87;4.50;;;;;;;;;;5030475;28;20309;-87
2023/07/01 04:55:04;;;;;;;5.00;4.70;;;;;;;;;;5029912;28;20207;-87
2023/07/01 04:57:31;;;;;;;5.73;4.77;;;;;;;;;;5029615;28;20738;-87
2023/07/01 04:59:58;;;;;;;5.30;4.90;;;;;;;;;;5022375;28;20602;-86
2023/07/01 05:02:24;;;;;;;5.37;4.90;;;;;;;;;;5024246;28;20203;-87
2023/07/01 05:04:51;;;;;;;5.70;5.07;;;;;;;;;;5021899;28;20209;-87
2023/07/01 05:07:18;;;;;;;7.80;5.60;;;;;;;;;;5034095;28;20792;-87
2023/07/01 05:09:45;;;;;;;5.43;5.03;;;;;;;;;;5034170;28;20226;-88
2023/07/01 05:12:14;;;;;;;5.60;5.20;;;;;;;;;;5019846;28;20298;-87
2023/07/01 05:14:41;;;;;;;5.80;5.30;;;;;;;;;;5024424;28;20736;-86
2023/07/01 05:17:08;;;;;;;5.90;4.80;;;;;;;;;;5013393;28;20264;-86
2023/07/01 05:19:35;;;;;;;5.10;4.70;;;;;;;;;;5034286;28;20241;-86
2023/07/01 05:22:02;;;;;;;5.13;4.50;;;;;;;;;;5032932;28;20203;-87
2023/07/01 05:24:29;;;;;;;6.03;5.53;;;;;;;;;;5024768;28;20681;-87
2023/07/01 05:26:56;;;;;;;7.03;4.77;;;;;;;;;;5030574;28;20887;-87
2023/07/01 05:29:26;;;;;;;5.70;5.20;;;;;;;;;;5033659;28;20213;-87
2023/07/01 05:31:56;;;;;;;5.37;4.80;;;;;;;;;;5033696;28;20252;-87
2023/07/01 05:34:23;;;;;;;4.83;4.53;;;;;;;;;;5033688;28;20293;-86
2023/07/01 05:36:50;;;;;;;5.03;4.53;;;;;;;;;;5033890;28;20218;-87
2023/07/01 05:39:17;;;;;;;4.43;4.13;;;;;;;;;;5034120;28;20214;-87
2023/07/01 05:41:45;;;;;;;6.53;4.10;;;;;;;;;;5033839;28;20210;-87
2023/07/01 05:44:12;;;;;;;4.43;4.10;;;;;;;;;;5033905;28;20234;-87
2023/07/01 05:46:41;;;;;;;7.00;4.63;;;;;;;;;;5020926;28;20206;-87
2023/07/01 05:49:08;;;;;;;5.20;4.73;;;;;;;;;;5033736;28;20637;-87
2023/07/01 05:51:35;;;;;;;4.50;4.10;;;;;;;;;;5026595;28;20242;-88
2023/07/01 05:54:02;;;;;;;4.57;4.10;;;;;;;;;;5022488;28;20266;-87
2023/07/01 05:56:30;;;;;;;7.93;4.30;;;;;;;;;;5019853;28;20221;-88
2023/07/01 05:58:57;;;;;;;7.10;4.50;;;;;;;;;;5021182;28;20203;-88
2023/07/01 06:01:24;;;;;;;4.67;4.27;;;;;;;;;;5036145;28;20296;-88
2023/07/01 06:03:54;;;;;;;4.33;4.03;;;;;;;;;;5039285;28;20202;-88
2023/07/01 06:06:21;;;;;;;4.73;3.93;;;;;;;;;;5034122;28;20219;-88
2023/07/01 06:08:48;;;;;;;6.07;4.13;;;;;;;;;;5032175;28;20202;-87
2023/07/01 06:11:15;;;;;;;4.80;3.77;;;;;;;;;;5024317;28;20618;-89
2023/07/01 06:13:45;;;;;;;4.67;4.30;;;;;;;;;;5027633;28;20210;-88
2023/07/01 06:16:12;;;;;;;3.90;3.60;;;;;;;;;;5032643;28;20599;-88
2023/07/01 06:18:39;;;;;;;4.47;3.83;;;;;;;;;;5020251;28;20217;-88
2023/07/01 06:21:08;;;;;;;4.20;3.80;;;;;;;;;;5033053;28;20214;-89
2023/07/01 06:23:35;;;;;;;4.07;3.77;;;;;;;;;;5030100;28;20215;-88
2023/07/01 06:26:02;;;;;;;5.60;3.47;;;;;;;;;;5013563;28;20218;-88
2023/07/01 06:28:29;;;;;;;6.47;4.07;;;;;;;;;;5027229;28;20218;-88
2023/07/01 06:30:56;;;;;;;4.80;4.33;;;;;;;;;;5012179;28;20282;-87
2023/07/01 06:33:23;;;;;;;4.33;3.73;;;;;;;;;;5010207;28;20211;-88
2023/07/01 06:35:50;;;;;;;4.97;4.47;;;;;;;;;;5033165;28;20207;-88
2023/07/01 06:38:18;;;;;;;4.03;3.73;;;;;;;;;;5032075;28;20608;-89
2023/07/01 06:40:45;;;;;;;3.93;3.63;;;;;;;;;;5032186;28;20221;-90
2023/07/01 06:43:13;;;;;;;3.60;3.40;;;;;;;;;;5031744;28;20597;-88
2023/07/01 06:45:40;;;;;;;3.67;3.47;;;;;;;;;;5030960;28;20565;-82
2023/07/01 06:48:06;;;;;;;3.87;3.50;;;;;;;;;;5031522;28;20704;-83
2023/07/01 06:50:34;;;;;;;8.73;4.40;;;;;;;;;;5029175;28;20642;-82
2023/07/01 06:53:01;;;;;;;4.33;3.87;;;;;;;;;;5031511;28;20206;-82
2023/07/01 06:55:29;;;;;;;4.77;4.30;;;;;;;;;;5026127;28;20191;-82
2023/07/01 06:57:56;;;;;;;3.90;3.63;;;;;;;;;;5023308;28;20689;-82
2023/07/01 07:00:24;;;;;;;4.93;3.87;;;;;;;;;;5031702;28;20289;-82
2023/07/01 07:02:51;;;;;;;4.00;3.70;;;;;;;;;;5024162;28;20281;-83
2023/07/01 07:05:17;;;;;;;4.23;3.93;;;;;;;;;;5024890;28;20212;-82
2023/07/01 07:07:45;;;;;;;4.00;3.70;;;;;;;;;;5030180;28;20256;-82
2023/07/01 07:10:11;;;;;;;3.97;3.67;;;;;;;;;;5021882;28;20218;-83
2023/07/01 07:12:40;;;;;;;4.43;4.13;;;;;;;;;;5031120;28;20677;-83
2023/07/01 07:15:08;;;;;;;5.20;4.10;;;;;;;;;;5027918;28;20334;-84
2023/07/01 07:17:34;;;;;;;6.53;4.03;;;;;;;;;;5026737;28;20206;-83
2023/07/01 07:20:02;;;;;;;7.30;4.70;;;;;;;;;;5031707;28;20203;-83
2023/07/01 07:22:28;;;;;;;4.63;4.23;;;;;;;;;;5031404;28;20298;-83
2023/07/01 07:24:56;;;;;;;4.93;4.43;;;;;;;;;;5030771;28;20207;-83
2023/07/01 07:27:23;;;;;;;5.03;4.53;;;;;;;;;;5030242;28;20202;-84
2023/07/01 07:29:51;;;;;;;5.53;4.43;;;;;;;;;;5031238;28;20285;-83
2023/07/01 07:32:18;;;;;;;5.73;4.87;;;;;;;;;;5029112;28;20206;-82
2023/07/01 07:34:45;;;;;;;5.50;5.10;;;;;;;;;;5030474;28;20692;-82
2023/07/01 07:37:12;;;;;;;5.10;4.73;;;;;;;;;;5031147;28;20206;-83
2023/07/01 07:39:39;;;;;;;6.03;5.43;;;;;;;;;;5030863;28;20232;-82
2023/07/01 07:42:06;;;;;;;4.78;4.47;;;;;;;;;;5030650;28;20213;-83
2023/07/01 07:44:33;;;;;;;4.93;4.53;;;;;;;;;;5030917;28;20241;-83
2023/07/01 07:47:01;;;;;;;5.10;4.63;;;;;;;;;;5026739;28;20213;-83
2023/07/01 07:49:28;;;;;;;6.60;4.90;;;;;;;;;;5030451;28;20203;-81
2023/07/01 07:51:55;;;;;;;5.28;4.88;;;;;;;;;;5030228;28;20227;-81
2023/07/01 07:54:21;;;;;;;5.55;5.05;;;;;;;;;;5030289;28;20218;-81
2023/07/01 07:56:48;;;;;;;5.70;5.13;;;;;;;;;;5030231;28;20688;-80
2023/07/01 07:59:15;;;;;;;5.55;5.15;;;;;;;;;;5030538;28;20685;-80
2023/07/01 08:01:42;;;;;;;5.28;4.85;;;;;;;;;;5030894;28;20207;-81
2023/07/01 08:04:10;;;;;;;5.60;5.10;;;;;;;;;;5029885;28;20211;-81
2023/07/01 08:06:37;;;;;;;6.13;5.53;;;;;;;;;;5030444;28;20638;-83
2023/07/01 08:09:03;;;;;;;5.97;5.35;;;;;;;;;;5030325;28;20689;-80
2023/07/01 08:11:30;;;;;;;5.50;5.10;;;;;;;;;;5030653;28;20245;-84
2023/07/01 08:13:57;;;;;;;5.28;4.78;;;;;;;;;;5016894;28;20225;-84
2023/07/01 08:16:24;;;;;;;5.53;5.10;;;;;;;;;;5030259;28;20326;-84
2023/07/01 08:18:51;;;;;;;8.15;5.75;;;;;;;;;;5030398;28;20202;-83
2023/07/01 08:21:19;;;;;;;6.10;5.07;;;;;;;;;;5029639;28;20203;-83
2023/07/01 08:23:46;;;;;;;6.10;5.05;;;;;;;;;;5030353;28;20214;-84
2023/07/01 08:26:12;;;;;;;5.68;5.05;;;;;;;;;;5030649;28;20206;-84
2023/07/01 08:28:39;;;;;;;5.05;4.55;;;;;;;;;;5029900;28;20194;-84
2023/07/01 08:31:06;;;;;;;5.93;5.22;;;;;;;;;;5030212;28;20234;-83
2023/07/01 08:33:33;;;;;;;4.38;4.07;;;;;;;;;;5029978;28;20199;-83
2023/07/01 08:36:00;;;;;;;4.57;4.28;;;;;;;;;;5029521;28;20199;-82
2023/07/01 08:38:30;;;;;;;6.97;5.50;;;;;;;;;;5027268;28;20217;-83
2023/07/01 08:40:58;;;;;;;4.35;3.97;;;;;;;;;;5020603;28;20243;-83
2023/07/01 08:43:25;;;;;;;5.03;4.40;;;;;;;;;;5034153;28;20676;-83
2023/07/01 08:45:56;;;;;;;5.68;5.00;;;;;;;;;;5032747;28;20202;-83
2023/07/01 08:48:23;;;;;;;5.88;4.28;;;;;;;;;;5033624;28;20203;-82
2023/07/01 08:50:55;;;;;;;6.28;4.90;;;;;;;;;;5025240;28;20238;-84
2023/07/01 08:53:23;;;;;;;5.20;4.70;;;;;;;;;;5032406;28;20203;-83
2023/07/01 08:55:54;;;;;;;7.68;4.13;;;;;;;;;;5022285;28;20234;-83
2023/07/01 08:58:21;;;;;;;6.90;4.22;;;;;;;;;;5025821;28;20720;-83
2023/07/01 09:00:48;;;;;;;4.60;4.30;;;;;;;;;;5026639;28;20689;-83
2023/07/01 09:03:16;;;;;;;5.05;4.70;;;;;;;;;;5032186;28;20203;-82
2023/07/01 09:05:43;;;;;;;4.70;4.35;;;;;;;;;;5032440;28;20210;-82
2023/07/01 09:08:10;;;;;;;5.00;4.60;;;;;;;;;;5032066;28;20200;-82
2023/07/01 09:10:40;;;;;;;4.85;4.40;;;;;;;;;;5032534;28;20249;-84
2023/07/01 09:13:13;;;;;;;5.15;4.80;;;;;;;;;;5032570;28;20226;-83
2023/07/01 09:15:45;;;;;;;4.65;4.05;;;;;;;;;;5029325;28;20237;-83
2023/07/01 09:18:20;;;;;;;4.85;4.55;;;;;;;;;;5043775;28;20241;-83
2023/07/01 09:20:48;;;;;;;4.97;4.57;;;;;;;;;;5032627;28;20194;-82
2023/07/01 09:23:26;;;;;;;4.50;4.20;;;;;;;;;;5032413;28;20214;-83
2023/07/01 09:25:53;;;;;;;4.97;4.57;;;;;;;;;;5032546;28;20206;-83
2023/07/01 09:28:31;;;;;;;5.85;4.75;;;;;;;;;;5024807;28;20203;-83
2023/07/01 09:31:01;;;;;;;5.55;4.95;;;;;;;;;;5031696;28;20321;-83
2023/07/01 09:33:28;;;;;;;5.40;4.90;;;;;;;;;;5026806;28;20291;-83
2023/07/01 09:35:57;;;;;;;4.72;4.43;;;;;;;;;;5025146;28;20198;-84
2023/07/01 09:38:24;;;;;;;5.07;4.63;;;;;;;;;;5019862;28;20234;-84
2023/07/01 09:40:51;;;;;;;5.55;5.05;;;;;;;;;;5032959;28;20210;-84
2023/07/01 09:43:19;;;;;;;5.57;5.18;;;;;;;;;;5032193;28;20268;-83
2023/07/01 09:45:56;;;;;;;6.05;4.60;;;;;;;;;;5033117;28;20210;-84
2023/07/01 09:48:24;;;;;;;5.10;4.70;;;;;;;;;;5032809;28;20205;-83
2023/07/01 09:50:51;;;;;;;4.78;4.38;;;;;;;;;;5032297;28;20250;-83
2023/07/01 09:53:24;;;;;;;5.80;5.30;;;;;;;;;;5032288;28;20221;-83
2023/07/01 09:55:51;;;;;;;4.78;4.45;;;;;;;;;;5032743;28;20241;-84
2023/07/01 09:58:18;;;;;;;7.47;4.82;;;;;;;;;;5032442;28;20409;-83
2023/07/01 10:00:45;;;;;;;4.40;4.10;;;;;;;;;;5033160;28;20206;-84
2023/07/01 10:03:15;;;;;;;4.50;4.20;;;;;;;;;;5032268;28;20199;-84
2023/07/01 10:05:44;;;;;;;4.93;4.63;;;;;;;;;;5032787;28;20261;-83
2023/07/01 10:08:10;;;;;;;5.93;4.90;;;;;;;;;;5031870;28;20677;-83
2023/07/01 10:10:37;;;;;;;5.82;5.20;;;;;;;;;;5032715;28;20210;-84
2023/07/01 10:13:05;;;;;;;6.88;6.28;;;;;;;;;;5032405;28;20202;-84
2023/07/01 10:15:34;;;;;;;4.97;4.57;;;;;;;;;;5032029;28;20345;-83
2023/07/01 10:18:00;;;;;;;4.60;4.30;;;;;;;;;;5023243;28;20692;-84
2023/07/01 10:20:30;;;;;;;5.82;4.57;;;;;;;;;;5028539;28;20195;-84
2023/07/01 10:22:58;;;;;;;5.68;5.05;;;;;;;;;;5031560;28;20211;-84
2023/07/01 10:25:32;;;;;;;6.15;5.55;;;;;;;;;;5032259;28;20198;-83
2023/07/01 10:28:09;;;;;;;4.85;4.45;;;;;;;;;;5031655;28;20250;-84
2023/07/01 10:31:10;;;;;;;4.68;4.38;;;;;;;;;;5032371;28;20565;-83
2023/07/01 10:33:57;;;;;;;4.25;3.75;;;;;;;;;;5031974;28;20651;-83
2023/07/01 10:36:26;;;;;;;4.80;4.40;;;;;;;;;;5031839;28;20249;-84
2023/07/01 10:39:33;;;;;;;4.13;3.83;;;;;;;;;;5032045;28;20214;-83
2023/07/01 10:41:59;;;;;;;4.60;4.30;;;;;;;;;;5031723;28;20325;-84
2023/07/01 10:44:26;;;;;;;4.68;4.28;;;;;;;;;;5031736;28;20194;-84
2023/07/01 10:47:18;;;;;;;4.47;4.03;;;;;;;;;;5031805;28;20202;-84
2023/07/01 10:50:01;;;;;;;5.88;4.53;;;;;;;;;;5017739;28;20583;-84
2023/07/01 10:52:30;;;;;;;5.00;4.60;;;;;;;;;;5030961;28;20324;-84
2023/07/01 10:54:59;;;;;;;6.60;4.82;;;;;;;;;;5026433;28;20724;-85
2023/07/01 10:57:27;;;;;;;5.18;4.80;;;;;;;;;;5023083;28;20203;-84
2023/07/01 11:00:33;;;;;;;4.63;4.28;;;;;;;;;;5030887;28;20265;-83
2023/07/01 11:03:00;;;;;;;5.53;5.03;;;;;;;;;;5023138;28;20210;-83
2023/07/01 11:05:29;;;;;;;5.15;4.70;;;;;;;;;;5018450;28;20612;-84
2023/07/01 11:08:07;;;;;;;5.68;4.07;;;;;;;;;;5026957;28;20206;-84
2023/07/01 11:10:35;;;;;;;5.60;5.10;;;;;;;;;;5031573;28;20720;-83
2023/07/01 11:13:03;;;;;;;4.38;3.97;;;;;;;;;;5030327;28;20230;-83
2023/07/01 11:15:30;;;;;;;4.63;4.32;;;;;;;;;;5030742;28;20230;-82
2023/07/01 11:17:58;;;;;;;4.70;4.20;;;;;;;;;;5031289;28;20198;-83
2023/07/01 11:20:25;;;;;;;4.13;3.80;;;;;;;;;;5030217;28;20591;-83
2023/07/01 11:22:53;;;;;;;4.15;3.70;;;;;;;;;;5029490;28;20210;-83
2023/07/01 11:25:21;;;;;;;3.95;3.70;;;;;;;;;;5031655;28;20321;-83
2023/07/01 11:27:48;;;;;;;4.40;4.10;;;;;;;;;;5026033;28;20648;-83
2023/07/01 11:30:31;;;;;;;4.32;4.03;;;;;;;;;;5025640;28;20221;-84
2023/07/01 11:33:11;;;;;;;4.40;4.10;;;;;;;;;;5028874;28;20229;-83
2023/07/01 11:35:51;;;;;;;3.65;3.45;;;;;;;;;;5029868;28;20198;-83
2023/07/01 11:38:24;;;;;;;4.53;4.03;;;;;;;;;;5030537;28;20202;-83
2023/07/01 11:40:55;;;;;;;9.38;3.72;;;;;;;;;;5030964;28;20217;-84
2023/07/01 11:43:24;;;;;;;4.35;3.72;;;;;;;;;;5028829;28;20233;-83
2023/07/01 11:45:52;;;;;;;3.90;3.60;;;;;;;;;;5029714;28;20203;-83
2023/07/01 11:48:30;;;;;;;7.97;3.40;;;;;;;;;;5029466;28;20199;-84
2023/07/01 11:50:57;;;;;;;4.25;3.95;;;;;;;;;;5030698;28;20230;-80
2023/07/01 11:53:26;;;;;;;4.30;4.00;;;;;;;;;;5029327;28;20264;-80
2023/07/01 11:55:56;;;;;;;4.20;3.97;;;;;;;;;;5030654;28;20203;-81
2023/07/01 11:58:30;;;;;;;4.88;4.15;;;;;;;;;;5030609;28;20229;-80
2023/07/01 12:00:58;;;;;;;4.65;4.20;;;;;;;;;;5029381;28;20630;-83
2023/07/01 12:03:26;;;;;;;4.65;4.03;;;;;;;;;;5030228;28;20648;-83
2023/07/01 12:05:53;;;;;;;4.18;3.88;;;;;;;;;;5029745;28;20206;-83
2023/07/01 12:08:20;;;;;;;4.60;4.22;;;;;;;;;;5013084;28;20217;-84
2023/07/01 12:10:48;;;;;;;5.43;4.10;;;;;;;;;;5013051;28;20210;-84
2023/07/01 12:13:32;;;;;;;4.53;4.22;;;;;;;;;;5030542;28;20229;-84
2023/07/01 12:16:00;;;;;;;4.18;3.35;;;;;;;;;;5034983;28;20229;-84
2023/07/01 12:18:29;;;;;;;4.63;4.22;;;;;;;;;;5034166;28;20766;-83
2023/07/01 12:20:57;;;;;;;4.25;3.95;;;;;;;;;;5033884;28;20199;-83
2023/07/01 12:23:24;;;;;;;6.07;3.45;;;;;;;;;;5034307;28;20680;-83
2023/07/01 12:25:52;;;;;;;4.00;3.70;;;;;;;;;;5033316;28;20751;-83
2023/07/01 12:28:20;;;;;;;3.55;3.35;;;;;;;;;;5034656;28;20206;-84
2023/07/01 12:30:50;;;;;;;5.82;4.07;;;;;;;;;;5034096;28;20268;-84
2023/07/01 12:33:17;;;;;;;4.75;4.28;;;;;;;;;;5032313;28;20616;-84
2023/07/01 12:35:44;;;;;;;4.45;3.60;;;;;;;;;;5032746;28;20207;-84
2023/07/01 12:38:12;;;;;;;4.28;3.95;;;;;;;;;;5016521;28;20214;-84
2023/07/01 12:40:40;;;;;;;4.82;4.45;;;;;;;;;;5021075;28;20237;-85
2023/07/01 12:43:08;;;;;;;4.20;3.90;;;;;;;;;;5034456;28;20206;-84
2023/07/01 12:45:35;;;;;;;4.07;3.78;;;;;;;;;;5033209;28;20199;-84
2023/07/01 12:48:05;;;;;;;4.00;3.70;;;;;;;;;;5032126;28;20207;-84
2023/07/01 12:50:33;;;;;;;4.13;3.75;;;;;;;;;;5034293;28;20281;-84
2023/07/01 12:53:00;;;;;;;4.30;4.00;;;;;;;;;;5024650;28;20262;-84
2023/07/01 12:55:27;;;;;;;3.90;3.70;;;;;;;;;;5032090;28;20202;-84
2023/07/01 12:57:54;;;;;;;4.07;3.78;;;;;;;;;;5033362;28;20210;-83
2023/07/01 13:00:24;;;;;;;4.63;3.50;;;;;;;;;;5020071;28;20576;-84
2023/07/01 13:02:53;;;;;;;5.38;4.07;;;;;;;;;;5024232;28;20207;-84
2023/07/01 13:05:22;;;;;;;3.95;3.65;;;;;;;;;;5017447;28;20289;-83
2023/07/01 13:07:50;;;;;;;7.07;3.95;;;;;;;;;;5021176;28;20207;-84
2023/07/01 13:10:18;;;;;;;3.95;3.65;;;;;;;;;;5026901;28;20207;-84
2023/07/01 13:12:46;;;;;;;4.03;3.72;;;;;;;;;;5012443;28;20663;-83
2023/07/01 13:15:23;;;;;;;4.45;4.10;;;;;;;;;;5032274;28;20322;-82
2023/07/01 13:17:50;;;;;;;4.07;3.67;;;;;;;;;;5028701;28;20693;-83
2023/07/01 13:20:20;;;;;;;3.50;3.20;;;;;;;;;;5028967;28;20588;-81
2023/07/01 13:22:52;;;;;;;3.80;3.55;;;;;;;;;;5031634;28;20213;-82
2023/07/01 13:25:20;;;;;;;4.13;3.83;;;;;;;;;;5032656;28;20289;-81
2023/07/01 13:27:47;;;;;;;4.00;3.70;;;;;;;;;;5032725;28;20203;-81
2023/07/01 13:30:32;;;;;;;3.58;3.38;;;;;;;;;;5032983;28;20203;-80
2023/07/01 13:33:02;;;;;;;8.80;3.90;;;;;;;;;;5032673;28;20284;-81
2023/07/01 13:35:29;;;;;;;4.10;3.78;;;;;;;;;;5031800;28;20626;-80
2023/07/01 13:38:06;;;;;;;3.40;3.20;;;;;;;;;;5032656;28;20211;-81
2023/07/01 13:40:37;;;;;;;3.92;3.63;;;;;;;;;;5032468;28;20199;-81
2023/07/01 13:43:07;;;;;;;3.42;3.22;;;;;;;;;;5031200;28;20207;-80
2023/07/01 13:45:35;;;;;;;3.95;3.65;;;;;;;;;;5031169;28;20289;-82
2023/07/01 13:48:02;;;;;;;3.95;3.70;;;;;;;;;;5032263;28;20268;-80
2023/07/01 13:50:30;;;;;;;5.40;3.30;;;;;;;;;;5031421;28;20205;-80
2023/07/01 13:53:00;;;;;;;3.58;3.28;;;;;;;;;;5032200;28;20785;-82
2023/07/01 13:55:29;;;;;;;3.03;2.83;;;;;;;;;;5031426;28;20210;-83
2023/07/01 13:57:56;;;;;;;3.58;3.28;;;;;;;;;;5030674;28;20684;-83
2023/07/01 14:00:38;;;;;;;3.72;3.42;;;;;;;;;;5020783;28;20202;-83
2023/07/01 14:03:09;;;;;;;3.38;3.10;;;;;;;;;;5032306;28;20202;-83
2023/07/01 14:05:39;;;;;;;3.47;3.25;;;;;;;;;;5015117;28;20203;-83
2023/07/01 14:08:07;;;;;;;3.95;3.65;;;;;;;;;;5031346;28;20700;-83
2023/07/01 14:10:37;;;;;;;3.22;3.03;;;;;;;;;;5031879;28;20207;-83
2023/07/01 14:13:06;;;;;;;3.20;3.00;;;;;;;;;;5030774;28;20649;-83
2023/07/01 14:15:37;;;;;;;3.00;2.80;;;;;;;;;;5032220;28;20262;-83
2023/07/01 14:18:21;;;;;;;4.55;3.40;;;;;;;;;;5031795;28;20213;-84
2023/07/01 14:20:54;;;;;;;3.10;2.90;;;;;;;;;;5033043;28;20673;-83
2023/07/01 14:23:24;;;;;;;3.25;3.05;;;;;;;;;;5030698;28;20217;-83
2023/07/01 14:25:56;;;;;;;3.75;3.45;;;;;;;;;;5013639;28;20217;-83
2023/07/01 14:28:24;;;;;;;3.50;3.25;;;;;;;;;;5032071;28;20234;-84
2023/07/01 14:31:07;;;;;;;3.40;3.10;;;;;;;;;;4994907;28;20231;-82
2023/07/01 14:33:41;;;;;;;3.17;2.97;;;;;;;;;;5006873;28;20215;-83
2023/07/01 14:36:12;;;;;;;3.17;2.97;;;;;;;;;;5030808;28;20336;-83
2023/07/01 14:38:44;;;;;;;4.25;3.80;;;;;;;;;;5030506;28;20211;-83
2023/07/01 14:41:35;;;;;;;3.55;3.25;;;;;;;;;;5014685;28;20199;-82
2023/07/01 14:44:03;;;;;;;4.00;3.70;;;;;;;;;;5014083;28;20233;-83
2023/07/01 14:46:32;;;;;;;3.55;3.35;;;;;;;;;;5030718;28;20206;-83
2023/07/01 14:49:03;;;;;;;4.03;3.72;;;;;;;;;;5031975;28;20581;-83
2023/07/01 14:51:30;;;;;;;4.57;3.88;;;;;;;;;;5031842;28;20191;-83
2023/07/01 14:53:58;;;;;;;4.15;3.85;;;;;;;;;;5031451;28;20226;-82